Prospect, CT (06712)

5:10 PM EST on December 10, 2019 (GMT -0500)
Prospect | | Change Station
Active Advisory: Winter Weather Advisory

Elev 850 ft 41.50 °N, 72.98 °W | Updated 14 seconds ago

Rain
Rain
51.1 °F
Feels Like 51.1 °F
N
0.9
Wind Variable Wind from SE
Gusts 2.2 mph

Today
High -- | Low -- °F
--% Chance of Precip.
Yesterday
High -- | Low -- °F
Precip. -- in
Pressure 29.85 in
Visibility 4.0 miles
Clouds Mostly Cloudy 5500 ft
Mostly Cloudy 7000 ft
Overcast 9000 ft
Dew Point 50 °F
Humidity 96%
Rainfall 0.27 in
Snow Depth Not available.
7:07 AM 4:21 PM
Waxing Gibbous, 98% visible
METAR KMMK 102153Z AUTO 18006KT 4SM RA BR BKN055 BKN070 OVC090 12/11 A2984 RMK AO2 PRESRR SLP106 P0008 T01170106
Pressure 29.85 in
Visibility 4.0 miles
Clouds Mostly Cloudy 5500 ft
Mostly Cloudy 7000 ft
Overcast 9000 ft
Dew Point 50 °F
Humidity 96%
Rainfall 0.27 in
Snow Depth Not available.
7:07 AM 4:21 PM
Waxing Gibbous, 98% visible
METAR KMMK 102153Z AUTO 18006KT 4SM RA BR BKN055 BKN070 OVC090 12/11 A2984 RMK AO2 PRESRR SLP106 P0008 T01170106

Get Your Daily Forecast Email!

Thanks for signing up!

Be on the lookout for a verification email in your inbox.

You'll start receiving severe weather alerts in your inbox..

×

10-Day Weather Forecast

Almanac

Astronomy

Dec. 10, 2019 Rise Set
Actual Time
Civil Twilight
Nautical Twilight
Astronomical Twilight
Moon
Length of Visible Light
Length of Day
Tomorrow will be .
, % of the Moon is Illuminated

Today's Extremes

State Highs State Lows

Community

WunderPhotos

Category 6

Welcome to Category 6. This is the collective home for Weather Underground's featured writeups by Dr. Jeff Masters (right), Bob Henson (left), Chris Burt, and other regular contributors.

Nearby

Air Quality

  Air Quality AQ Index Pollutant
Not available.

Snow Depth

Station Depth Elevation

Earthquake Activity

City Distance Mag. Time & Date
Minimum magnitude displayed is 2.5.

Coastal Water Temperatures

Place Temperature

Stations

Nearby Weather Stations

Station Location Temp. Windchill Dew Point Humidity Wind Precip. Elev Updated Type
                   

Watches & Warnings

Winter Weather Advisory
Issued: 2:48 PM EST Dec. 10, 2019 – National Weather Service

... Winter Weather Advisory remains in effect from 3 am to 11 am
EST Wednesday...

* what... snow. Total snow accumulations around one to two inches.
Locally higher amounts possible across Long Island and southern
Connecticut.

* Where... southern Connecticut. In New York, New York City, Long
Island and Westchester. In New Jersey, eastern Bergen, eastern
Essex, eastern Union and Hudson.

* When... from 3 am to 11 am EST Wednesday.

* Impacts... the hazardous conditions will impact the morning
commute. Plan on slippery Road conditions and reduced
visibilities.

Precautionary/preparedness actions...

Slow down and use caution while traveling.

Check local Department of Transportation information services for
the latest Road conditions.